sensor_id;sensor_type;location;lat;lon;timestamp;P1;durP1;ratioP1;P2;durP2;ratioP2
38427;SDS011;24211;49.980;19.776;2024-02-21T00:00:33;18.90;;;7.10;;
38427;SDS011;24211;49.980;19.776;2024-02-21T00:03:20;18.98;;;7.07;;
38427;SDS011;24211;49.980;19.776;2024-02-21T00:05:49;21.23;;;7.25;;
38427;SDS011;24211;49.980;19.776;2024-02-21T00:08:27;17.98;;;6.20;;
38427;SDS011;24211;49.980;19.776;2024-02-21T00:10:54;17.30;;;6.40;;
38427;SDS011;24211;49.980;19.776;2024-02-21T00:13:21;17.45;;;5.90;;
38427;SDS011;24211;49.980;19.776;2024-02-21T00:15:50;14.73;;;5.47;;
38427;SDS011;24211;49.980;19.776;2024-02-21T00:18:27;13.43;;;5.25;;
38427;SDS011;24211;49.980;19.776;2024-02-21T00:20:59;14.85;;;5.38;;
38427;SDS011;24211;49.980;19.776;2024-02-21T00:23:43;14.70;;;5.25;;
38427;SDS011;24211;49.980;19.776;2024-02-21T00:28:41;11.68;;;4.43;;
38427;SDS011;24211;49.980;19.776;2024-02-21T00:31:10;11.18;;;4.43;;
38427;SDS011;24211;49.980;19.776;2024-02-21T00:33:37;14.63;;;4.80;;
38427;SDS011;24211;49.980;19.776;2024-02-21T00:36:16;9.77;;;4.35;;
38427;SDS011;24211;49.980;19.776;2024-02-21T00:38:43;9.93;;;4.13;;
38427;SDS011;24211;49.980;19.776;2024-02-21T00:41:39;10.63;;;3.90;;
38427;SDS011;24211;49.980;19.776;2024-02-21T00:44:20;10.20;;;3.88;;
38427;SDS011;24211;49.980;19.776;2024-02-21T00:46:47;9.52;;;3.80;;
38427;SDS011;24211;49.980;19.776;2024-02-21T00:49:15;10.73;;;3.90;;
38427;SDS011;24211;49.980;19.776;2024-02-21T00:52:00;11.38;;;4.10;;
38427;SDS011;24211;49.980;19.776;2024-02-21T00:55:06;10.60;;;3.83;;
38427;SDS011;24211;49.980;19.776;2024-02-21T00:57:39;9.15;;;4.38;;
38427;SDS011;24211;49.980;19.776;2024-02-21T01:03:23;10.52;;;4.03;;
38427;SDS011;24211;49.980;19.776;2024-02-21T01:05:51;10.75;;;3.85;;
38427;SDS011;24211;49.980;19.776;2024-02-21T01:08:19;7.35;;;3.60;;
38427;SDS011;24211;49.980;19.776;2024-02-21T01:10:50;9.77;;;4.18;;
38427;SDS011;24211;49.980;19.776;2024-02-21T01:13:18;9.57;;;3.85;;
38427;SDS011;24211;49.980;19.776;2024-02-21T01:15:45;9.93;;;3.80;;
38427;SDS011;24211;49.980;19.776;2024-02-21T01:18:12;8.88;;;3.38;;
38427;SDS011;24211;49.980;19.776;2024-02-21T01:20:55;10.55;;;3.63;;
38427;SDS011;24211;49.980;19.776;2024-02-21T01:23:34;9.50;;;3.50;;
38427;SDS011;24211;49.980;19.776;2024-02-21T01:26:06;8.32;;;3.35;;
38427;SDS011;24211;49.980;19.776;2024-02-21T01:28:35;8.23;;;3.30;;
38427;SDS011;24211;49.980;19.776;2024-02-21T01:31:02;8.75;;;3.13;;
38427;SDS011;24211;49.980;19.776;2024-02-21T01:33:55;7.40;;;3.30;;
38427;SDS011;24211;49.980;19.776;2024-02-21T01:36:23;8.07;;;3.20;;
38427;SDS011;24211;49.980;19.776;2024-02-21T01:42:05;6.50;;;2.45;;
38427;SDS011;24211;49.980;19.776;2024-02-21T01:44:32;7.00;;;2.80;;
38427;SDS011;24211;49.980;19.776;2024-02-21T01:47:00;6.80;;;2.75;;
38427;SDS011;24211;49.980;19.776;2024-02-21T01:49:28;6.50;;;2.70;;
38427;SDS011;24211;49.980;19.776;2024-02-21T01:51:55;9.75;;;2.75;;
38427;SDS011;24211;49.980;19.776;2024-02-21T01:54:25;6.75;;;2.60;;
38427;SDS011;24211;49.980;19.776;2024-02-21T01:56:57;6.72;;;2.53;;
38427;SDS011;24211;49.980;19.776;2024-02-21T01:59:26;7.53;;;2.60;;
38427;SDS011;24211;49.980;19.776;2024-02-21T02:04:51;8.65;;;2.78;;
38427;SDS011;24211;49.980;19.776;2024-02-21T02:07:19;6.70;;;2.40;;
38427;SDS011;24211;49.980;19.776;2024-02-21T02:09:46;8.25;;;2.85;;
38427;SDS011;24211;49.980;19.776;2024-02-21T02:12:16;6.05;;;2.30;;
38427;SDS011;24211;49.980;19.776;2024-02-21T02:14:43;6.93;;;2.60;;
38427;SDS011;24211;49.980;19.776;2024-02-21T02:17:11;5.28;;;2.35;;
38427;SDS011;24211;49.980;19.776;2024-02-21T02:19:38;5.90;;;2.67;;
38427;SDS011;24211;49.980;19.776;2024-02-21T02:22:22;6.63;;;2.70;;
38427;SDS011;24211;49.980;19.776;2024-02-21T02:25:01;6.78;;;2.58;;
38427;SDS011;24211;49.980;19.776;2024-02-21T02:27:40;6.15;;;2.58;;
38427;SDS011;24211;49.980;19.776;2024-02-21T02:30:26;6.60;;;2.50;;
38427;SDS011;24211;49.980;19.776;2024-02-21T02:33:01;6.82;;;2.55;;
38427;SDS011;24211;49.980;19.776;2024-02-21T02:35:35;5.68;;;2.33;;
38427;SDS011;24211;49.980;19.776;2024-02-21T02:38:09;7.03;;;2.58;;
38427;SDS011;24211;49.980;19.776;2024-02-21T02:40:38;6.95;;;2.55;;
38427;SDS011;24211;49.980;19.776;2024-02-21T02:43:10;5.57;;;2.53;;
38427;SDS011;24211;49.980;19.776;2024-02-21T02:45:37;6.80;;;2.40;;
38427;SDS011;24211;49.980;19.776;2024-02-21T02:48:04;5.63;;;2.15;;
38427;SDS011;24211;49.980;19.776;2024-02-21T02:50:35;6.18;;;2.50;;
38427;SDS011;24211;49.980;19.776;2024-02-21T02:53:03;8.38;;;2.47;;
38427;SDS011;24211;49.980;19.776;2024-02-21T02:55:30;6.15;;;2.20;;
38427;SDS011;24211;49.980;19.776;2024-02-21T02:57:57;6.20;;;2.40;;
38427;SDS011;24211;49.980;19.776;2024-02-21T03:00:42;5.75;;;2.10;;
38427;SDS011;24211;49.980;19.776;2024-02-21T03:03:11;6.70;;;2.47;;
38427;SDS011;24211;49.980;19.776;2024-02-21T03:05:41;6.40;;;2.30;;
38427;SDS011;24211;49.980;19.776;2024-02-21T03:08:16;6.55;;;2.38;;
38427;SDS011;24211;49.980;19.776;2024-02-21T03:10:43;5.05;;;1.92;;
38427;SDS011;24211;49.980;19.776;2024-02-21T03:13:15;6.53;;;2.33;;
38427;SDS011;24211;49.980;19.776;2024-02-21T03:15:42;5.97;;;2.20;;
38427;SDS011;24211;49.980;19.776;2024-02-21T03:18:12;5.35;;;2.22;;
38427;SDS011;24211;49.980;19.776;2024-02-21T03:20:49;7.13;;;2.20;;
38427;SDS011;24211;49.980;19.776;2024-02-21T03:23:30;5.07;;;2.00;;
38427;SDS011;24211;49.980;19.776;2024-02-21T03:26:04;6.65;;;2.40;;
38427;SDS011;24211;49.980;19.776;2024-02-21T03:28:36;8.27;;;2.60;;
38427;SDS011;24211;49.980;19.776;2024-02-21T03:31:13;5.97;;;2.38;;
38427;SDS011;24211;49.980;19.776;2024-02-21T03:36:32;7.35;;;2.63;;
38427;SDS011;24211;49.980;19.776;2024-02-21T03:39:04;6.93;;;2.97;;
38427;SDS011;24211;49.980;19.776;2024-02-21T03:41:32;7.30;;;3.00;;
38427;SDS011;24211;49.980;19.776;2024-02-21T03:43:59;6.50;;;3.08;;
38427;SDS011;24211;49.980;19.776;2024-02-21T03:54:49;9.48;;;3.05;;
38427;SDS011;24211;49.980;19.776;2024-02-21T03:57:22;10.95;;;3.25;;
38427;SDS011;24211;49.980;19.776;2024-02-21T03:59:59;8.85;;;2.95;;
38427;SDS011;24211;49.980;19.776;2024-02-21T04:02:53;9.65;;;3.22;;
38427;SDS011;24211;49.980;19.776;2024-02-21T04:05:20;9.88;;;3.05;;
38427;SDS011;24211;49.980;19.776;2024-02-21T04:07:48;10.90;;;3.05;;
38427;SDS011;24211;49.980;19.776;2024-02-21T04:13:30;9.25;;;3.13;;
38427;SDS011;24211;49.980;19.776;2024-02-21T04:15:58;9.15;;;3.00;;
38427;SDS011;24211;49.980;19.776;2024-02-21T04:18:25;8.27;;;2.80;;
38427;SDS011;24211;49.980;19.776;2024-02-21T04:20:52;9.57;;;3.38;;
38427;SDS011;24211;49.980;19.776;2024-02-21T04:23:23;8.02;;;3.10;;
38427;SDS011;24211;49.980;19.776;2024-02-21T04:25:59;9.57;;;3.40;;
38427;SDS011;24211;49.980;19.776;2024-02-21T04:28:27;9.23;;;3.50;;
38427;SDS011;24211;49.980;19.776;2024-02-21T04:30:54;9.63;;;3.20;;
38427;SDS011;24211;49.980;19.776;2024-02-21T04:33:55;9.60;;;3.33;;
38427;SDS011;24211;49.980;19.776;2024-02-21T04:40:32;8.15;;;2.83;;
38427;SDS011;24211;49.980;19.776;2024-02-21T04:42:59;7.68;;;2.58;;
38427;SDS011;24211;49.980;19.776;2024-02-21T04:45:33;7.78;;;2.70;;
38427;SDS011;24211;49.980;19.776;2024-02-21T04:48:00;6.07;;;2.70;;
38427;SDS011;24211;49.980;19.776;2024-02-21T04:50:47;6.30;;;2.67;;
38427;SDS011;24211;49.980;19.776;2024-02-21T04:53:14;7.20;;;3.00;;
38427;SDS011;24211;49.980;19.776;2024-02-21T04:55:52;7.53;;;2.78;;
38427;SDS011;24211;49.980;19.776;2024-02-21T04:58:19;7.95;;;2.60;;
38427;SDS011;24211;49.980;19.776;2024-02-21T05:00:47;6.30;;;2.30;;
38427;SDS011;24211;49.980;19.776;2024-02-21T05:03:14;7.35;;;2.50;;
38427;SDS011;24211;49.980;19.776;2024-02-21T05:05:43;6.13;;;2.17;;
38427;SDS011;24211;49.980;19.776;2024-02-21T05:08:11;6.60;;;2.53;;
38427;SDS011;24211;49.980;19.776;2024-02-21T05:10:40;6.90;;;2.45;;
38427;SDS011;24211;49.980;19.776;2024-02-21T05:16:40;7.65;;;2.20;;
38427;SDS011;24211;49.980;19.776;2024-02-21T05:19:08;4.88;;;2.17;;
38427;SDS011;24211;49.980;19.776;2024-02-21T05:21:35;5.93;;;2.20;;
38427;SDS011;24211;49.980;19.776;2024-02-21T05:26:56;5.85;;;1.98;;
38427;SDS011;24211;49.980;19.776;2024-02-21T05:29:23;5.72;;;1.90;;
38427;SDS011;24211;49.980;19.776;2024-02-21T05:34:18;9.25;;;2.95;;
38427;SDS011;24211;49.980;19.776;2024-02-21T05:37:05;9.50;;;3.40;;
38427;SDS011;24211;49.980;19.776;2024-02-21T05:42:34;8.85;;;3.55;;
38427;SDS011;24211;49.980;19.776;2024-02-21T05:45:01;10.18;;;3.80;;
38427;SDS011;24211;49.980;19.776;2024-02-21T05:47:30;12.40;;;4.18;;
38427;SDS011;24211;49.980;19.776;2024-02-21T05:49:58;9.63;;;3.47;;
38427;SDS011;24211;49.980;19.776;2024-02-21T05:52:32;13.20;;;4.25;;
38427;SDS011;24211;49.980;19.776;2024-02-21T05:55:18;10.15;;;3.65;;
38427;SDS011;24211;49.980;19.776;2024-02-21T05:57:45;10.57;;;3.60;;
38427;SDS011;24211;49.980;19.776;2024-02-21T06:00:19;11.75;;;3.70;;
38427;SDS011;24211;49.980;19.776;2024-02-21T06:02:47;12.50;;;4.00;;
38427;SDS011;24211;49.980;19.776;2024-02-21T06:05:15;9.95;;;3.28;;
38427;SDS011;24211;49.980;19.776;2024-02-21T06:07:57;12.18;;;4.07;;
38427;SDS011;24211;49.980;19.776;2024-02-21T06:10:25;9.65;;;3.80;;
38427;SDS011;24211;49.980;19.776;2024-02-21T06:12:52;10.70;;;3.80;;
38427;SDS011;24211;49.980;19.776;2024-02-21T06:15:19;8.90;;;3.50;;
38427;SDS011;24211;49.980;19.776;2024-02-21T06:17:47;8.50;;;3.95;;
38427;SDS011;24211;49.980;19.776;2024-02-21T06:20:16;11.65;;;3.53;;
38427;SDS011;24211;49.980;19.776;2024-02-21T06:22:43;10.32;;;3.63;;
38427;SDS011;24211;49.980;19.776;2024-02-21T06:25:21;10.43;;;3.47;;
38427;SDS011;24211;49.980;19.776;2024-02-21T06:27:48;8.30;;;2.97;;
38427;SDS011;24211;49.980;19.776;2024-02-21T06:30:15;8.88;;;3.58;;
38427;SDS011;24211;49.980;19.776;2024-02-21T06:32:49;9.55;;;3.45;;
38427;SDS011;24211;49.980;19.776;2024-02-21T06:35:31;8.45;;;3.17;;
38427;SDS011;24211;49.980;19.776;2024-02-21T06:37:58;9.95;;;3.28;;
38427;SDS011;24211;49.980;19.776;2024-02-21T06:40:26;9.45;;;3.53;;
38427;SDS011;24211;49.980;19.776;2024-02-21T06:42:53;10.02;;;3.40;;
38427;SDS011;24211;49.980;19.776;2024-02-21T06:45:23;13.48;;;3.88;;
38427;SDS011;24211;49.980;19.776;2024-02-21T06:48:02;10.15;;;3.80;;
38427;SDS011;24211;49.980;19.776;2024-02-21T06:50:35;11.70;;;3.80;;
38427;SDS011;24211;49.980;19.776;2024-02-21T06:53:03;8.55;;;3.50;;
38427;SDS011;24211;49.980;19.776;2024-02-21T07:04:26;10.40;;;4.00;;
38427;SDS011;24211;49.980;19.776;2024-02-21T07:19:04;8.23;;;3.63;;
38427;SDS011;24211;49.980;19.776;2024-02-21T07:21:31;8.43;;;3.60;;
38427;SDS011;24211;49.980;19.776;2024-02-21T07:33:05;7.97;;;3.90;;
38427;SDS011;24211;49.980;19.776;2024-02-21T07:35:48;9.95;;;3.63;;
38427;SDS011;24211;49.980;19.776;2024-02-21T07:38:16;13.30;;;4.63;;
38427;SDS011;24211;49.980;19.776;2024-02-21T07:40:58;10.43;;;4.70;;
38427;SDS011;24211;49.980;19.776;2024-02-21T07:43:26;13.57;;;6.07;;
38427;SDS011;24211;49.980;19.776;2024-02-21T07:45:53;15.50;;;7.07;;
38427;SDS011;24211;49.980;19.776;2024-02-21T07:52:00;15.25;;;6.85;;
38427;SDS011;24211;49.980;19.776;2024-02-21T07:54:37;15.13;;;6.82;;
38427;SDS011;24211;49.980;19.776;2024-02-21T07:57:04;16.02;;;7.20;;
38427;SDS011;24211;49.980;19.776;2024-02-21T07:59:32;12.68;;;6.20;;
38427;SDS011;24211;49.980;19.776;2024-02-21T08:01:59;13.57;;;6.15;;
38427;SDS011;24211;49.980;19.776;2024-02-21T08:04:27;13.27;;;6.03;;
38427;SDS011;24211;49.980;19.776;2024-02-21T08:07:03;15.45;;;6.05;;
38427;SDS011;24211;49.980;19.776;2024-02-21T08:09:31;11.18;;;5.15;;
38427;SDS011;24211;49.980;19.776;2024-02-21T08:12:14;13.27;;;5.57;;
38427;SDS011;24211;49.980;19.776;2024-02-21T08:14:42;14.13;;;6.15;;
38427;SDS011;24211;49.980;19.776;2024-02-21T08:17:11;10.85;;;6.13;;
38427;SDS011;24211;49.980;19.776;2024-02-21T08:20:09;14.05;;;6.40;;
38427;SDS011;24211;49.980;19.776;2024-02-21T08:25:31;11.10;;;5.32;;
38427;SDS011;24211;49.980;19.776;2024-02-21T08:27:59;12.48;;;5.70;;
38427;SDS011;24211;49.980;19.776;2024-02-21T08:30:26;11.13;;;5.32;;
38427;SDS011;24211;49.980;19.776;2024-02-21T08:32:54;11.10;;;5.20;;
38427;SDS011;24211;49.980;19.776;2024-02-21T08:35:21;11.32;;;4.95;;
38427;SDS011;24211;49.980;19.776;2024-02-21T08:40:42;10.63;;;4.07;;
38427;SDS011;24211;49.980;19.776;2024-02-21T08:43:09;11.27;;;4.15;;
38427;SDS011;24211;49.980;19.776;2024-02-21T08:45:40;12.18;;;3.90;;
38427;SDS011;24211;49.980;19.776;2024-02-21T08:48:07;10.32;;;3.55;;
38427;SDS011;24211;49.980;19.776;2024-02-21T08:50:35;14.27;;;4.10;;
38427;SDS011;24211;49.980;19.776;2024-02-21T08:53:03;13.32;;;4.47;;
38427;SDS011;24211;49.980;19.776;2024-02-21T08:55:32;10.43;;;3.88;;
38427;SDS011;24211;49.980;19.776;2024-02-21T09:00:54;12.85;;;4.28;;
38427;SDS011;24211;49.980;19.776;2024-02-21T09:03:21;12.63;;;4.30;;
38427;SDS011;24211;49.980;19.776;2024-02-21T09:05:55;11.60;;;4.30;;
38427;SDS011;24211;49.980;19.776;2024-02-21T09:08:24;12.05;;;3.78;;
38427;SDS011;24211;49.980;19.776;2024-02-21T09:14:54;9.88;;;3.40;;
38427;SDS011;24211;49.980;19.776;2024-02-21T09:17:21;8.90;;;3.38;;
38427;SDS011;24211;49.980;19.776;2024-02-21T09:19:56;13.77;;;3.65;;
38427;SDS011;24211;49.980;19.776;2024-02-21T09:22:26;8.75;;;2.83;;
38427;SDS011;24211;49.980;19.776;2024-02-21T09:25:01;8.90;;;2.90;;
38427;SDS011;24211;49.980;19.776;2024-02-21T09:30:29;8.65;;;2.70;;
38427;SDS011;24211;49.980;19.776;2024-02-21T09:32:57;8.10;;;3.08;;
38427;SDS011;24211;49.980;19.776;2024-02-21T09:35:38;8.93;;;2.67;;
38427;SDS011;24211;49.980;19.776;2024-02-21T09:38:06;7.38;;;2.60;;
38427;SDS011;24211;49.980;19.776;2024-02-21T09:40:43;8.05;;;2.40;;
38427;SDS011;24211;49.980;19.776;2024-02-21T09:43:10;7.70;;;2.70;;
38427;SDS011;24211;49.980;19.776;2024-02-21T09:45:39;6.40;;;2.35;;
38427;SDS011;24211;49.980;19.776;2024-02-21T09:49:17;6.35;;;2.45;;
38427;SDS011;24211;49.980;19.776;2024-02-21T09:51:53;6.63;;;2.35;;
38427;SDS011;24211;49.980;19.776;2024-02-21T09:54:35;8.70;;;2.63;;
38427;SDS011;24211;49.980;19.776;2024-02-21T09:57:03;7.72;;;2.42;;
38427;SDS011;24211;49.980;19.776;2024-02-21T09:59:34;8.80;;;2.63;;
38427;SDS011;24211;49.980;19.776;2024-02-21T10:02:15;7.93;;;2.60;;
38427;SDS011;24211;49.980;19.776;2024-02-21T10:04:58;6.38;;;2.10;;
38427;SDS011;24211;49.980;19.776;2024-02-21T10:07:48;6.05;;;2.22;;
38427;SDS011;24211;49.980;19.776;2024-02-21T10:10:22;7.18;;;2.30;;
38427;SDS011;24211;49.980;19.776;2024-02-21T10:12:50;5.13;;;2.20;;
38427;SDS011;24211;49.980;19.776;2024-02-21T10:15:41;5.10;;;1.92;;
38427;SDS011;24211;49.980;19.776;2024-02-21T10:18:08;6.18;;;2.05;;
38427;SDS011;24211;49.980;19.776;2024-02-21T10:20:35;6.22;;;2.22;;
38427;SDS011;24211;49.980;19.776;2024-02-21T10:23:10;5.40;;;2.00;;
38427;SDS011;24211;49.980;19.776;2024-02-21T10:25:37;6.45;;;2.50;;
38427;SDS011;24211;49.980;19.776;2024-02-21T10:28:15;9.27;;;3.90;;
38427;SDS011;24211;49.980;19.776;2024-02-21T10:30:52;9.57;;;3.70;;
38427;SDS011;24211;49.980;19.776;2024-02-21T10:33:32;8.05;;;3.42;;
38427;SDS011;24211;49.980;19.776;2024-02-21T10:36:09;8.73;;;3.53;;
38427;SDS011;24211;49.980;19.776;2024-02-21T10:38:38;7.63;;;3.22;;
38427;SDS011;24211;49.980;19.776;2024-02-21T10:41:05;8.75;;;3.03;;
38427;SDS011;24211;49.980;19.776;2024-02-21T10:43:37;7.13;;;2.67;;
38427;SDS011;24211;49.980;19.776;2024-02-21T10:46:08;5.93;;;2.42;;
38427;SDS011;24211;49.980;19.776;2024-02-21T10:48:44;8.15;;;2.60;;
38427;SDS011;24211;49.980;19.776;2024-02-21T10:51:48;7.68;;;2.45;;
38427;SDS011;24211;49.980;19.776;2024-02-21T10:54:24;7.13;;;2.50;;
38427;SDS011;24211;49.980;19.776;2024-02-21T10:57:15;8.18;;;2.78;;
38427;SDS011;24211;49.980;19.776;2024-02-21T10:59:51;7.28;;;2.63;;
38427;SDS011;24211;49.980;19.776;2024-02-21T11:02:25;7.45;;;2.75;;
38427;SDS011;24211;49.980;19.776;2024-02-21T11:04:57;8.77;;;2.60;;
38427;SDS011;24211;49.980;19.776;2024-02-21T11:07:29;5.88;;;2.40;;
38427;SDS011;24211;49.980;19.776;2024-02-21T11:10:01;6.95;;;2.80;;
38427;SDS011;24211;49.980;19.776;2024-02-21T11:12:34;9.15;;;2.88;;
38427;SDS011;24211;49.980;19.776;2024-02-21T11:15:05;7.38;;;2.28;;
38427;SDS011;24211;49.980;19.776;2024-02-21T11:18:02;6.03;;;2.40;;
38427;SDS011;24211;49.980;19.776;2024-02-21T11:20:35;5.50;;;2.30;;
38427;SDS011;24211;49.980;19.776;2024-02-21T11:23:04;5.43;;;2.40;;
38427;SDS011;24211;49.980;19.776;2024-02-21T11:25:32;5.28;;;2.20;;
38427;SDS011;24211;49.980;19.776;2024-02-21T11:28:03;7.65;;;3.80;;
38427;SDS011;24211;49.980;19.776;2024-02-21T11:30:38;8.95;;;4.43;;
38427;SDS011;24211;49.980;19.776;2024-02-21T11:33:09;7.63;;;3.72;;
38427;SDS011;24211;49.980;19.776;2024-02-21T11:35:53;6.93;;;3.20;;
38427;SDS011;24211;49.980;19.776;2024-02-21T11:38:22;8.45;;;3.20;;
38427;SDS011;24211;49.980;19.776;2024-02-21T11:41:07;8.10;;;3.15;;
38427;SDS011;24211;49.980;19.776;2024-02-21T11:43:37;9.02;;;3.00;;
38427;SDS011;24211;49.980;19.776;2024-02-21T11:46:05;7.90;;;3.08;;
38427;SDS011;24211;49.980;19.776;2024-02-21T11:48:34;7.45;;;3.03;;
38427;SDS011;24211;49.980;19.776;2024-02-21T11:51:01;8.02;;;2.88;;
38427;SDS011;24211;49.980;19.776;2024-02-21T11:53:30;8.85;;;3.00;;
38427;SDS011;24211;49.980;19.776;2024-02-21T11:56:01;7.25;;;2.97;;
38427;SDS011;24211;49.980;19.776;2024-02-21T11:58:30;7.40;;;2.90;;
38427;SDS011;24211;49.980;19.776;2024-02-21T12:00:58;5.97;;;2.70;;
38427;SDS011;24211;49.980;19.776;2024-02-21T12:03:25;7.68;;;3.08;;
38427;SDS011;24211;49.980;19.776;2024-02-21T12:05:55;8.13;;;3.10;;
38427;SDS011;24211;49.980;19.776;2024-02-21T12:08:24;8.57;;;3.22;;
38427;SDS011;24211;49.980;19.776;2024-02-21T12:10:51;8.70;;;2.97;;
38427;SDS011;24211;49.980;19.776;2024-02-21T12:13:22;6.72;;;3.03;;
38427;SDS011;24211;49.980;19.776;2024-02-21T12:15:50;9.07;;;3.58;;
38427;SDS011;24211;49.980;19.776;2024-02-21T12:18:17;7.97;;;3.00;;
38427;SDS011;24211;49.980;19.776;2024-02-21T12:20:47;8.32;;;3.30;;
38427;SDS011;24211;49.980;19.776;2024-02-21T12:23:15;9.82;;;3.47;;
38427;SDS011;24211;49.980;19.776;2024-02-21T12:25:45;10.13;;;3.92;;
38427;SDS011;24211;49.980;19.776;2024-02-21T12:28:12;9.48;;;3.60;;
38427;SDS011;24211;49.980;19.776;2024-02-21T12:30:39;7.63;;;3.10;;
38427;SDS011;24211;49.980;19.776;2024-02-21T12:33:12;7.15;;;2.92;;
38427;SDS011;24211;49.980;19.776;2024-02-21T12:35:48;8.43;;;3.15;;
38427;SDS011;24211;49.980;19.776;2024-02-21T12:38:16;7.82;;;3.00;;
38427;SDS011;24211;49.980;19.776;2024-02-21T12:40:45;7.75;;;3.10;;
38427;SDS011;24211;49.980;19.776;2024-02-21T12:43:12;10.40;;;3.20;;
38427;SDS011;24211;49.980;19.776;2024-02-21T12:45:42;6.05;;;2.72;;
38427;SDS011;24211;49.980;19.776;2024-02-21T12:48:09;6.82;;;2.90;;
38427;SDS011;24211;49.980;19.776;2024-02-21T12:50:37;6.90;;;2.85;;
38427;SDS011;24211;49.980;19.776;2024-02-21T12:53:05;5.63;;;2.60;;
38427;SDS011;24211;49.980;19.776;2024-02-21T12:55:45;6.90;;;2.75;;
38427;SDS011;24211;49.980;19.776;2024-02-21T12:58:15;6.55;;;2.72;;
38427;SDS011;24211;49.980;19.776;2024-02-21T13:00:42;6.55;;;2.83;;
38427;SDS011;24211;49.980;19.776;2024-02-21T13:03:10;6.70;;;2.58;;
38427;SDS011;24211;49.980;19.776;2024-02-21T13:05:38;7.10;;;2.75;;
38427;SDS011;24211;49.980;19.776;2024-02-21T13:08:05;8.32;;;3.13;;
38427;SDS011;24211;49.980;19.776;2024-02-21T13:10:33;7.95;;;3.30;;
38427;SDS011;24211;49.980;19.776;2024-02-21T13:13:01;8.55;;;4.22;;
38427;SDS011;24211;49.980;19.776;2024-02-21T13:15:29;9.48;;;4.72;;
38427;SDS011;24211;49.980;19.776;2024-02-21T13:17:56;10.77;;;4.03;;
38427;SDS011;24211;49.980;19.776;2024-02-21T13:20:27;9.13;;;3.90;;
38427;SDS011;24211;49.980;19.776;2024-02-21T13:22:55;8.38;;;3.70;;
38427;SDS011;24211;49.980;19.776;2024-02-21T13:25:23;7.85;;;3.30;;
38427;SDS011;24211;49.980;19.776;2024-02-21T13:27:50;10.20;;;3.55;;
38427;SDS011;24211;49.980;19.776;2024-02-21T13:30:17;9.23;;;3.67;;
38427;SDS011;24211;49.980;19.776;2024-02-21T13:32:45;8.45;;;3.45;;
38427;SDS011;24211;49.980;19.776;2024-02-21T13:35:13;7.55;;;3.20;;
38427;SDS011;24211;49.980;19.776;2024-02-21T13:37:41;7.68;;;3.40;;
38427;SDS011;24211;49.980;19.776;2024-02-21T13:40:10;7.57;;;3.28;;
38427;SDS011;24211;49.980;19.776;2024-02-21T13:42:37;7.50;;;3.30;;
38427;SDS011;24211;49.980;19.776;2024-02-21T13:45:05;7.53;;;3.38;;
38427;SDS011;24211;49.980;19.776;2024-02-21T13:47:33;8.85;;;3.40;;
38427;SDS011;24211;49.980;19.776;2024-02-21T13:50:03;7.88;;;3.20;;
38427;SDS011;24211;49.980;19.776;2024-02-21T13:52:31;9.52;;;3.55;;
38427;SDS011;24211;49.980;19.776;2024-02-21T13:54:58;7.72;;;3.30;;
38427;SDS011;24211;49.980;19.776;2024-02-21T13:57:25;8.68;;;3.72;;
38427;SDS011;24211;49.980;19.776;2024-02-21T13:59:53;9.63;;;3.50;;
38427;SDS011;24211;49.980;19.776;2024-02-21T14:02:20;9.45;;;3.42;;
38427;SDS011;24211;49.980;19.776;2024-02-21T14:04:48;9.60;;;3.75;;
38427;SDS011;24211;49.980;19.776;2024-02-21T14:07:15;9.35;;;3.35;;
38427;SDS011;24211;49.980;19.776;2024-02-21T14:09:44;9.82;;;3.80;;
38427;SDS011;24211;49.980;19.776;2024-02-21T14:12:11;8.35;;;3.75;;
38427;SDS011;24211;49.980;19.776;2024-02-21T14:14:39;8.38;;;3.58;;
38427;SDS011;24211;49.980;19.776;2024-02-21T14:17:07;9.00;;;3.67;;
38427;SDS011;24211;49.980;19.776;2024-02-21T14:19:35;10.10;;;4.00;;
38427;SDS011;24211;49.980;19.776;2024-02-21T14:22:02;9.43;;;3.67;;
38427;SDS011;24211;49.980;19.776;2024-02-21T14:24:30;7.95;;;3.45;;
38427;SDS011;24211;49.980;19.776;2024-02-21T14:26:57;8.82;;;3.70;;
38427;SDS011;24211;49.980;19.776;2024-02-21T14:29:26;7.55;;;3.20;;
38427;SDS011;24211;49.980;19.776;2024-02-21T14:31:53;8.95;;;3.22;;
38427;SDS011;24211;49.980;19.776;2024-02-21T14:34:20;9.98;;;3.65;;
38427;SDS011;24211;49.980;19.776;2024-02-21T14:36:48;8.40;;;3.63;;
38427;SDS011;24211;49.980;19.776;2024-02-21T14:39:15;8.55;;;3.45;;
38427;SDS011;24211;49.980;19.776;2024-02-21T14:41:42;7.57;;;3.08;;
38427;SDS011;24211;49.980;19.776;2024-02-21T14:44:10;6.32;;;3.13;;
38427;SDS011;24211;49.980;19.776;2024-02-21T14:46:37;8.02;;;3.60;;
38427;SDS011;24211;49.980;19.776;2024-02-21T14:49:05;7.97;;;3.35;;
38427;SDS011;24211;49.980;19.776;2024-02-21T14:51:32;6.03;;;2.97;;
38427;SDS011;24211;49.980;19.776;2024-02-21T14:54:00;14.95;;;6.07;;
38427;SDS011;24211;49.980;19.776;2024-02-21T14:56:27;21.77;;;9.40;;
38427;SDS011;24211;49.980;19.776;2024-02-21T14:58:55;27.20;;;12.75;;
38427;SDS011;24211;49.980;19.776;2024-02-21T15:01:35;29.13;;;13.88;;
38427;SDS011;24211;49.980;19.776;2024-02-21T15:04:06;24.65;;;12.35;;
38427;SDS011;24211;49.980;19.776;2024-02-21T15:06:34;22.02;;;11.35;;
38427;SDS011;24211;49.980;19.776;2024-02-21T15:09:04;19.70;;;9.95;;
38427;SDS011;24211;49.980;19.776;2024-02-21T15:11:34;18.17;;;9.27;;
38427;SDS011;24211;49.980;19.776;2024-02-21T15:14:02;15.15;;;8.02;;
38427;SDS011;24211;49.980;19.776;2024-02-21T15:16:29;15.80;;;8.05;;
38427;SDS011;24211;49.980;19.776;2024-02-21T15:18:57;15.73;;;6.97;;
38427;SDS011;24211;49.980;19.776;2024-02-21T15:21:24;13.02;;;6.07;;
38427;SDS011;24211;49.980;19.776;2024-02-21T15:23:51;11.38;;;5.50;;
38427;SDS011;24211;49.980;19.776;2024-02-21T15:26:19;13.63;;;5.70;;
38427;SDS011;24211;49.980;19.776;2024-02-21T15:28:47;11.07;;;5.30;;
38427;SDS011;24211;49.980;19.776;2024-02-21T15:31:23;10.43;;;5.18;;
38427;SDS011;24211;49.980;19.776;2024-02-21T15:33:51;12.20;;;5.20;;
38427;SDS011;24211;49.980;19.776;2024-02-21T15:36:20;8.82;;;4.80;;
38427;SDS011;24211;49.980;19.776;2024-02-21T15:38:47;11.93;;;5.88;;
38427;SDS011;24211;49.980;19.776;2024-02-21T15:41:15;11.80;;;5.93;;
38427;SDS011;24211;49.980;19.776;2024-02-21T15:43:43;10.70;;;6.47;;
38427;SDS011;24211;49.980;19.776;2024-02-21T15:46:11;11.82;;;6.63;;
38427;SDS011;24211;49.980;19.776;2024-02-21T15:48:39;13.85;;;7.05;;
38427;SDS011;24211;49.980;19.776;2024-02-21T15:51:07;12.02;;;7.65;;
38427;SDS011;24211;49.980;19.776;2024-02-21T15:53:34;13.45;;;8.05;;
38427;SDS011;24211;49.980;19.776;2024-02-21T15:56:02;12.73;;;8.18;;
38427;SDS011;24211;49.980;19.776;2024-02-21T15:58:30;13.10;;;8.63;;
38427;SDS011;24211;49.980;19.776;2024-02-21T16:00:58;14.25;;;8.75;;
38427;SDS011;24211;49.980;19.776;2024-02-21T16:03:25;14.00;;;8.70;;
38427;SDS011;24211;49.980;19.776;2024-02-21T16:05:53;14.57;;;8.80;;
38427;SDS011;24211;49.980;19.776;2024-02-21T16:08:20;13.15;;;8.38;;
38427;SDS011;24211;49.980;19.776;2024-02-21T16:10:47;13.27;;;8.30;;
38427;SDS011;24211;49.980;19.776;2024-02-21T16:13:16;14.23;;;9.10;;
38427;SDS011;24211;49.980;19.776;2024-02-21T16:15:43;17.85;;;10.57;;
38427;SDS011;24211;49.980;19.776;2024-02-21T16:18:13;19.55;;;10.32;;
38427;SDS011;24211;49.980;19.776;2024-02-21T16:20:46;17.17;;;9.95;;
38427;SDS011;24211;49.980;19.776;2024-02-21T16:23:17;14.88;;;8.93;;
38427;SDS011;24211;49.980;19.776;2024-02-21T16:25:44;15.88;;;9.45;;